Time;durP1;ratioP1;P1;durP2;ratioP2;P2;SDS_P1;SDS_P2;PMS_P1;PMS_P2;Temp;Humidity;BMP_temperature;BMP_pressure;BME280_temperature;BME280_humidity;BME280_pressure;Samples;Min_cycle;Max_cycle;Signal;HPM_P1;HPM_P2
2022/08/23 00:01:25;;;;;;;9.63;6.35;;;17.40;99.90;;;;;;5133541;27;20047;-77
2022/08/23 00:03:52;;;;;;;6.60;4.18;;;17.50;99.90;;;;;;5133517;28;20114;-81
2022/08/23 00:06:18;;;;;;;5.57;4.30;;;17.50;99.90;;;;;;5133511;27;20023;-77
2022/08/23 00:08:47;;;;;;;6.78;5.10;;;17.50;99.90;;;;;;5132021;27;20483;-81
2022/08/23 00:11:31;;;;;;;5.05;4.00;;;17.50;99.90;;;;;;5137074;27;20051;-81
2022/08/23 00:14:00;;;;;;;8.65;6.30;;;17.50;99.90;;;;;;5136113;27;20084;-81
2022/08/23 00:16:26;;;;;;;6.47;5.30;;;17.60;99.90;;;;;;5134201;27;20019;-81
2022/08/23 00:18:52;;;;;;;9.13;5.93;;;17.60;99.90;;;;;;5116708;28;20050;-82
2022/08/23 00:21:17;;;;;;;15.52;11.30;;;17.70;99.90;;;;;;5116587;28;20023;-81
2022/08/23 00:23:43;;;;;;;9.55;5.85;;;17.60;99.90;;;;;;5116786;28;20504;-81
2022/08/23 00:26:09;;;;;;;12.43;7.45;;;17.60;99.90;;;;;;5119480;27;20027;-77
2022/08/23 00:28:34;;;;;;;8.43;5.25;;;17.60;99.90;;;;;;5135781;27;20033;-76
2022/08/23 00:31:00;;;;;;;7.00;4.95;;;17.60;99.90;;;;;;5135611;27;20107;-77
2022/08/23 00:33:26;;;;;;;6.63;4.70;;;17.60;99.90;;;;;;5133331;27;20035;-77
2022/08/23 00:35:51;;;;;;;4.03;3.67;;;17.60;99.90;;;;;;5115341;28;20034;-81
2022/08/23 00:38:17;;;;;;;7.38;4.30;;;17.60;99.90;;;;;;5116341;28;20046;-77
2022/08/23 00:40:52;;;;;;;6.47;4.45;;;17.50;99.90;;;;;;5116043;28;20099;-80
2022/08/23 00:49:14;;;;;;;5.85;4.53;;;17.50;99.90;;;;;;5115738;28;20527;-81
2022/08/23 00:51:57;;;;;;;5.78;5.00;;;17.40;99.90;;;;;;5114938;28;20016;-81
2022/08/23 00:54:26;;;;;;;5.85;4.72;;;17.50;99.90;;;;;;5116124;28;20039;-81
2022/08/23 00:56:57;;;;;;;6.10;4.95;;;17.50;99.90;;;;;;5116141;28;20027;-81
2022/08/23 00:59:23;;;;;;;7.32;4.85;;;17.40;99.90;;;;;;5114369;28;20028;-77
2022/08/23 01:01:50;;;;;;;6.15;4.80;;;17.50;99.90;;;;;;5114860;28;20380;-81
2022/08/23 01:04:16;;;;;;;5.93;3.88;;;17.40;99.90;;;;;;5115740;28;20027;-81
2022/08/23 01:07:03;;;;;;;4.60;4.07;;;17.40;99.90;;;;;;5114576;28;20568;-76
2022/08/23 01:09:29;;;;;;;5.43;3.42;;;17.40;99.90;;;;;;5115535;28;20545;-77
2022/08/23 01:12:10;;;;;;;6.75;4.15;;;17.40;99.90;;;;;;5115946;28;20469;-81
2022/08/23 01:15:05;;;;;;;4.28;3.78;;;17.40;99.90;;;;;;5115750;28;20038;-81
2022/08/23 01:18:03;;;;;;;6.90;4.80;;;17.40;99.90;;;;;;5115749;28;20015;-82
2022/08/23 01:20:37;;;;;;;3.80;3.50;;;17.40;99.90;;;;;;5102151;28;20035;-81
2022/08/23 01:23:17;;;;;;;4.35;3.92;;;17.40;99.90;;;;;;5115896;28;20027;-77
2022/08/23 01:25:43;;;;;;;4.82;3.67;;;17.40;99.90;;;;;;5114330;28;20400;-77
2022/08/23 01:28:09;;;;;;;6.80;4.82;;;17.40;99.90;;;;;;5114181;28;20031;-81
2022/08/23 01:30:35;;;;;;;5.68;5.03;;;17.40;99.90;;;;;;5115048;28;20020;-81
2022/08/23 01:33:05;;;;;;;7.03;6.20;;;17.40;99.90;;;;;;5113979;28;20378;-80
2022/08/23 01:35:49;;;;;;;9.70;6.20;;;17.40;99.90;;;;;;5114034;28;20019;-80
2022/08/23 01:38:15;;;;;;;8.70;6.47;;;17.40;99.90;;;;;;5113900;28;20023;-80
2022/08/23 01:40:42;;;;;;;10.68;6.50;;;17.40;99.90;;;;;;5113603;28;20085;-77
2022/08/23 01:43:08;;;;;;;10.82;7.47;;;17.40;99.90;;;;;;5113857;28;20027;-76
2022/08/23 01:45:35;;;;;;;8.10;6.43;;;17.40;99.90;;;;;;5113804;28;20023;-76
2022/08/23 01:48:01;;;;;;;7.28;6.57;;;17.40;99.90;;;;;;5113860;28;20040;-76
2022/08/23 01:50:27;;;;;;;10.60;6.75;;;17.40;99.90;;;;;;5114777;28;20048;-76
2022/08/23 01:52:53;;;;;;;8.75;6.68;;;17.40;99.90;;;;;;5113606;28;20055;-77
2022/08/23 01:55:20;;;;;;;8.95;7.47;;;17.40;99.90;;;;;;5114768;28;20043;-76
2022/08/23 01:57:49;;;;;;;8.80;6.57;;;17.40;99.90;;;;;;5115037;28;20028;-80
2022/08/23 02:00:15;;;;;;;13.85;8.07;;;17.40;99.90;;;;;;5114459;28;20073;-76
2022/08/23 02:02:40;;;;;;;9.90;7.47;;;17.40;99.90;;;;;;5113568;28;20012;-76
2022/08/23 02:05:07;;;;;;;9.88;7.88;;;17.40;99.90;;;;;;5113411;28;20515;-81
2022/08/23 02:07:33;;;;;;;11.20;8.70;;;17.40;99.90;;;;;;5114678;27;20077;-76
2022/08/23 02:09:59;;;;;;;11.05;8.55;;;17.40;99.90;;;;;;5113163;28;20023;-76
2022/08/23 02:12:25;;;;;;;10.75;9.60;;;17.50;99.90;;;;;;5114628;28;20423;-76
2022/08/23 02:14:50;;;;;;;11.73;8.68;;;17.50;99.90;;;;;;5114622;28;20031;-76
2022/08/23 02:17:17;;;;;;;14.68;9.40;;;17.50;99.90;;;;;;5114372;28;20020;-76
2022/08/23 02:19:44;;;;;;;15.65;9.57;;;17.50;99.90;;;;;;5112839;28;20024;-81
2022/08/23 02:22:10;;;;;;;14.35;9.95;;;17.50;99.90;;;;;;5113070;28;20107;-81
2022/08/23 02:24:45;;;;;;;12.43;8.70;;;17.50;99.90;;;;;;5113137;28;20016;-80
2022/08/23 02:27:15;;;;;;;11.80;9.30;;;17.50;99.90;;;;;;5114343;28;20026;-80
2022/08/23 02:29:43;;;;;;;8.95;7.72;;;17.50;99.90;;;;;;5112778;28;20042;-81
2022/08/23 02:32:12;;;;;;;14.65;10.60;;;17.50;99.90;;;;;;5112457;28;20384;-76
2022/08/23 02:34:38;;;;;;;15.25;9.70;;;17.50;99.90;;;;;;5112864;28;20080;-76
2022/08/23 02:37:06;;;;;;;13.70;8.98;;;17.50;99.90;;;;;;5112753;28;20456;-81
2022/08/23 02:39:33;;;;;;;15.00;10.30;;;17.50;99.90;;;;;;5112526;28;20354;-77
2022/08/23 02:41:59;;;;;;;15.45;11.80;;;17.50;99.90;;;;;;5113899;28;20027;-77
2022/08/23 02:44:25;;;;;;;12.23;10.45;;;17.50;99.90;;;;;;5114164;28;20024;-80
2022/08/23 02:46:51;;;;;;;15.05;11.57;;;17.50;99.90;;;;;;5113781;28;20024;-80
2022/08/23 02:49:17;;;;;;;14.43;10.85;;;17.50;99.90;;;;;;5112248;28;20027;-81
2022/08/23 02:51:43;;;;;;;13.60;11.20;;;17.50;99.90;;;;;;5113804;28;20023;-77
2022/08/23 02:54:09;;;;;;;12.45;10.38;;;17.50;99.90;;;;;;5113769;28;20042;-81
2022/08/23 02:56:35;;;;;;;14.57;12.23;;;17.50;99.90;;;;;;5113820;28;20069;-76
2022/08/23 02:59:02;;;;;;;13.70;11.52;;;17.50;99.90;;;;;;5112157;28;20115;-81
2022/08/23 03:01:30;;;;;;;15.57;11.80;;;17.50;99.90;;;;;;5113688;28;20016;-81
2022/08/23 03:03:56;;;;;;;14.23;11.57;;;17.50;99.90;;;;;;5112749;28;20026;-80
2022/08/23 03:06:22;;;;;;;15.10;12.05;;;17.40;99.90;;;;;;5112262;28;20023;-82
2022/08/23 03:08:47;;;;;;;13.70;12.23;;;17.40;99.90;;;;;;5112000;28;20069;-77
2022/08/23 03:11:16;;;;;;;17.42;13.10;;;17.40;99.90;;;;;;5112139;28;20023;-81
2022/08/23 03:13:44;;;;;;;16.08;12.13;;;17.50;99.90;;;;;;5112163;28;20039;-80
2022/08/23 03:16:10;;;;;;;13.60;11.93;;;17.50;99.90;;;;;;5112123;28;20034;-81
2022/08/23 03:18:37;;;;;;;17.45;12.85;;;17.50;99.90;;;;;;5112106;28;20153;-82
2022/08/23 03:21:04;;;;;;;14.23;12.10;;;17.50;99.90;;;;;;5113060;28;20027;-76
2022/08/23 03:23:31;;;;;;;16.83;12.73;;;17.50;99.90;;;;;;5112187;28;20027;-76
2022/08/23 03:25:58;;;;;;;16.63;13.15;;;17.50;99.90;;;;;;5111999;28;20372;-81
2022/08/23 03:28:24;;;;;;;16.00;12.40;;;17.50;99.90;;;;;;5113199;28;20023;-76
2022/08/23 03:30:50;;;;;;;19.20;13.07;;;17.50;99.90;;;;;;5111588;28;20472;-81
2022/08/23 03:33:16;;;;;;;16.38;12.85;;;17.50;99.90;;;;;;5112358;28;20365;-76
2022/08/23 03:35:41;;;;;;;17.80;13.13;;;17.40;99.90;;;;;;5113336;28;20085;-81
2022/08/23 03:38:07;;;;;;;14.80;12.38;;;17.40;99.90;;;;;;5111926;28;20024;-77
2022/08/23 03:40:33;;;;;;;14.63;10.52;;;17.40;99.90;;;;;;5112870;28;20070;-76
2022/08/23 03:43:00;;;;;;;11.23;9.25;;;17.30;99.90;;;;;;5111579;28;20496;-77
2022/08/23 03:45:26;;;;;;;13.90;7.78;;;17.30;99.90;;;;;;5114377;28;20043;-81
2022/08/23 03:47:52;;;;;;;12.93;8.25;;;17.20;99.90;;;;;;5117464;28;20034;-81
2022/08/23 03:50:18;;;;;;;16.95;8.40;;;17.20;99.90;;;;;;5115668;28;20036;-76
2022/08/23 03:52:44;;;;;;;19.33;8.60;;;17.10;99.90;;;;;;5115783;28;20062;-77
2022/08/23 03:55:09;;;;;;;20.02;9.30;;;17.10;99.90;;;;;;5116068;28;20028;-81
2022/08/23 03:57:35;;;;;;;10.13;7.68;;;17.10;99.90;;;;;;5117244;28;20024;-76
2022/08/23 04:00:01;;;;;;;11.52;7.88;;;17.10;99.90;;;;;;5115562;28;20126;-81
2022/08/23 04:02:26;;;;;;;14.27;8.70;;;17.10;99.90;;;;;;5117043;28;20076;-81
2022/08/23 04:04:52;;;;;;;10.27;7.97;;;17.00;99.90;;;;;;5117049;28;20031;-81
2022/08/23 04:07:22;;;;;;;13.27;8.70;;;17.00;99.90;;;;;;5116964;28;20566;-81
2022/08/23 04:09:47;;;;;;;13.93;8.02;;;16.90;99.90;;;;;;5116733;28;20023;-76
2022/08/23 04:12:13;;;;;;;15.15;7.75;;;16.90;99.90;;;;;;5115556;28;20477;-81
2022/08/23 04:14:39;;;;;;;11.68;8.75;;;16.90;99.90;;;;;;5115571;28;20036;-76
2022/08/23 04:17:05;;;;;;;12.43;8.48;;;16.90;99.90;;;;;;5115515;28;20498;-76
2022/08/23 04:19:31;;;;;;;12.70;8.43;;;16.80;99.90;;;;;;5116539;28;20233;-76
2022/08/23 04:21:57;;;;;;;10.70;7.93;;;16.90;99.90;;;;;;5116778;28;20028;-76
2022/08/23 04:24:23;;;;;;;10.15;8.02;;;16.90;99.90;;;;;;5115512;28;20028;-77
2022/08/23 04:26:48;;;;;;;13.70;8.70;;;16.90;99.90;;;;;;5116624;28;20016;-80
2022/08/23 04:29:15;;;;;;;13.02;8.65;;;17.00;99.90;;;;;;5116202;28;20115;-76
2022/08/23 04:31:42;;;;;;;11.65;7.65;;;17.00;99.90;;;;;;5115257;28;20028;-81
2022/08/23 04:34:08;;;;;;;12.70;7.95;;;17.00;99.90;;;;;;5115282;28;20081;-75
2022/08/23 04:36:37;;;;;;;10.98;8.73;;;17.00;99.90;;;;;;5115228;28;20415;-81
2022/08/23 04:39:04;;;;;;;13.13;9.32;;;17.10;99.90;;;;;;5116304;27;20028;-81
2022/08/23 04:44:14;;;;;;;12.75;9.65;;;17.10;99.90;;;;;;5116570;28;20538;-81
2022/08/23 04:46:42;;;;;;;14.63;9.65;;;17.10;99.90;;;;;;5116237;28;20032;-81
2022/08/23 04:49:09;;;;;;;11.85;8.50;;;17.20;99.90;;;;;;5115898;28;20119;-80
2022/08/23 04:51:34;;;;;;;10.23;7.80;;;17.10;99.90;;;;;;5114774;28;20027;-76
2022/08/23 04:54:01;;;;;;;11.90;8.70;;;17.20;99.90;;;;;;5114833;28;20027;-81
2022/08/23 04:56:27;;;;;;;10.85;8.05;;;17.20;99.90;;;;;;5115759;28;20092;-76
2022/08/23 04:58:53;;;;;;;16.65;8.63;;;17.30;99.90;;;;;;5114672;28;20018;-76
2022/08/23 05:01:18;;;;;;;13.70;10.52;;;17.30;99.90;;;;;;5115873;28;20095;-76
2022/08/23 05:03:44;;;;;;;11.68;8.18;;;17.30;99.90;;;;;;5114794;28;20032;-81
2022/08/23 05:06:10;;;;;;;16.15;11.02;;;17.30;99.90;;;;;;5115992;28;20421;-77
2022/08/23 05:08:35;;;;;;;12.45;8.77;;;17.30;99.90;;;;;;5114554;28;20019;-80
2022/08/23 05:11:03;;;;;;;11.70;7.38;;;17.30;99.90;;;;;;5114326;28;20039;-77
2022/08/23 05:13:30;;;;;;;12.48;8.52;;;17.30;99.90;;;;;;5114238;28;20051;-80
2022/08/23 05:15:55;;;;;;;9.20;7.47;;;17.20;99.90;;;;;;5114562;28;20427;-76
2022/08/23 05:18:22;;;;;;;10.68;8.27;;;17.30;99.90;;;;;;5115334;28;20085;-76
2022/08/23 05:20:48;;;;;;;11.35;8.00;;;17.30;99.90;;;;;;5106839;28;20016;-76
2022/08/23 05:23:14;;;;;;;12.00;8.32;;;17.30;99.90;;;;;;5111098;28;20072;-76
2022/08/23 05:25:48;;;;;;;11.93;8.05;;;17.20;99.90;;;;;;5099871;28;20039;-76
2022/08/23 05:28:20;;;;;;;11.48;7.70;;;17.30;99.90;;;;;;5096262;28;20073;-76
2022/08/23 05:30:54;;;;;;;13.35;9.07;;;17.30;99.90;;;;;;5093314;28;20055;-76
2022/08/23 05:33:20;;;;;;;16.27;9.23;;;17.40;99.90;;;;;;5093503;28;20039;-80
2022/08/23 05:35:46;;;;;;;14.38;9.07;;;17.40;99.90;;;;;;5094907;28;20020;-80
2022/08/23 05:38:11;;;;;;;17.50;8.40;;;17.40;99.90;;;;;;5094506;28;20059;-81
2022/08/23 05:40:37;;;;;;;15.73;9.30;;;17.50;99.90;;;;;;5110788;28;20075;-81
2022/08/23 05:43:02;;;;;;;22.50;11.63;;;17.50;99.90;;;;;;5114863;28;20480;-76
2022/08/23 05:45:28;;;;;;;19.20;10.18;;;17.60;99.90;;;;;;5109812;28;20393;-76
2022/08/23 05:47:54;;;;;;;24.40;10.10;;;17.60;99.90;;;;;;5111833;27;20604;-76
2022/08/23 05:50:21;;;;;;;20.33;10.85;;;17.70;99.90;;;;;;5108463;28;20040;-76
2022/08/23 05:52:47;;;;;;;27.63;11.65;;;17.80;99.90;;;;;;5092969;28;20050;-75
2022/08/23 05:55:12;;;;;;;21.73;11.77;;;17.80;99.90;;;;;;5107042;28;20457;-76
2022/08/23 05:57:38;;;;;;;23.23;11.88;;;17.90;99.90;;;;;;5110860;28;20028;-80
2022/08/23 06:00:14;;;;;;;28.33;12.48;;;18.00;99.90;;;;;;5107920;28;20028;-81
2022/08/23 06:02:41;;;;;;;23.77;12.90;;;18.00;99.90;;;;;;5113640;28;20035;-84
2022/08/23 06:05:07;;;;;;;23.73;13.07;;;18.10;99.90;;;;;;5113534;28;20073;-78
2022/08/23 06:07:34;;;;;;;26.17;12.77;;;18.20;99.90;;;;;;5112396;28;20028;-83
2022/08/23 06:10:00;;;;;;;26.70;13.32;;;18.20;99.90;;;;;;5113091;28;20099;-83
2022/08/23 06:12:27;;;;;;;31.33;15.38;;;18.30;99.90;;;;;;5114751;28;20473;-81
2022/08/23 06:14:52;;;;;;;29.63;15.52;;;18.40;99.90;;;;;;5113071;28;20073;-81
2022/08/23 06:17:18;;;;;;;32.90;16.02;;;18.40;99.90;;;;;;5113288;28;20023;-77
2022/08/23 06:19:44;;;;;;;25.90;14.00;;;18.40;99.90;;;;;;5109216;28;20052;-83
2022/08/23 06:22:09;;;;;;;36.92;16.40;;;18.50;99.90;;;;;;5108333;27;20020;-83
2022/08/23 06:24:35;;;;;;;33.88;16.65;;;18.60;99.90;;;;;;5120687;27;20027;-83
2022/08/23 06:27:01;;;;;;;31.15;15.52;;;18.70;99.90;;;;;;5121944;27;20052;-83
2022/08/23 06:29:27;;;;;;;35.13;17.50;;;18.70;99.90;;;;;;5127573;27;20043;-83
2022/08/23 06:31:52;;;;;;;29.77;17.25;;;18.80;99.90;;;;;;5115340;27;20024;-76
2022/08/23 06:34:23;;;;;;;37.75;20.67;;;18.80;99.90;;;;;;5112479;28;20059;-80
2022/08/23 06:36:56;;;;;;;33.38;19.90;;;18.90;99.90;;;;;;5125868;27;20381;-76
2022/08/23 06:39:24;;;;;;;34.05;17.60;;;18.90;99.90;;;;;;5123081;27;20695;-76
2022/08/23 06:41:50;;;;;;;35.10;19.55;;;18.90;99.90;;;;;;5129342;27;20129;-76
2022/08/23 06:44:17;;;;;;;28.00;14.98;;;18.90;99.90;;;;;;5129034;27;20023;-76
2022/08/23 06:46:45;;;;;;;32.90;16.45;;;18.90;99.90;;;;;;5132465;27;20030;-76
2022/08/23 06:49:11;;;;;;;29.13;16.77;;;19.00;99.90;;;;;;5132492;27;20051;-80
2022/08/23 06:51:43;;;;;;;34.00;17.23;;;19.10;99.90;;;;;;5126894;27;20036;-80
2022/08/23 06:54:12;;;;;;;31.55;17.40;;;19.20;99.90;;;;;;5106478;27;20038;-80
2022/08/23 06:56:41;;;;;;;29.55;16.50;;;19.20;99.90;;;;;;5131259;27;20122;-80
2022/08/23 06:59:07;;;;;;;34.25;17.17;;;19.20;99.90;;;;;;5106954;27;20020;-76
2022/08/23 07:01:41;;;;;;;36.50;19.83;;;19.20;99.90;;;;;;5092949;28;20390;-81
2022/08/23 07:04:09;;;;;;;27.73;17.02;;;19.20;99.90;;;;;;5099351;27;20031;-82
2022/08/23 07:06:35;;;;;;;30.45;16.60;;;19.30;99.90;;;;;;5114804;27;20106;-83
2022/08/23 07:09:02;;;;;;;34.67;17.90;;;19.40;99.90;;;;;;5114225;27;20043;-82
2022/08/23 07:11:30;;;;;;;31.20;17.08;;;19.40;99.90;;;;;;5115183;27;20019;-83
2022/08/23 07:13:58;;;;;;;29.27;17.67;;;19.50;99.90;;;;;;5112136;27;20378;-83
2022/08/23 07:16:24;;;;;;;28.30;15.75;;;19.50;99.90;;;;;;5111264;27;20016;-82
2022/08/23 07:18:51;;;;;;;28.23;15.00;;;19.50;99.90;;;;;;5106968;27;20491;-77
2022/08/23 07:21:19;;;;;;;38.67;18.15;;;19.40;99.90;;;;;;5112215;27;20023;-83
2022/08/23 07:23:45;;;;;;;27.38;15.18;;;19.40;99.90;;;;;;5108111;27;20028;-81
2022/08/23 07:26:14;;;;;;;29.92;16.05;;;19.50;99.90;;;;;;5117504;27;20038;-76
2022/08/23 07:28:41;;;;;;;29.38;17.00;;;19.50;99.90;;;;;;5100129;27;20028;-76
2022/08/23 07:31:19;;;;;;;30.73;17.42;;;19.60;99.90;;;;;;5114027;27;20102;-76
2022/08/23 07:33:45;;;;;;;33.75;16.67;;;19.70;99.90;;;;;;5103258;28;20585;-76
2022/08/23 07:36:16;;;;;;;37.65;18.77;;;19.90;99.90;;;;;;5118236;27;20015;-77
2022/08/23 07:38:43;;;;;;;38.60;19.02;;;19.90;99.90;;;;;;5104263;27;20039;-77
2022/08/23 07:41:09;;;;;;;37.03;18.83;;;20.00;99.90;;;;;;5117637;27;20484;-77
2022/08/23 07:43:35;;;;;;;38.80;17.88;;;20.10;99.90;;;;;;5099200;27;20092;-77
2022/08/23 07:46:02;;;;;;;35.28;18.10;;;20.10;99.90;;;;;;5114940;27;20123;-77
2022/08/23 07:48:28;;;;;;;35.53;18.58;;;20.20;99.90;;;;;;5094811;28;20036;-77
2022/08/23 07:50:56;;;;;;;29.42;17.80;;;20.40;99.90;;;;;;5114647;27;20172;-77
2022/08/23 07:53:23;;;;;;;36.03;18.83;;;20.40;99.90;;;;;;5101978;27;20032;-82
2022/08/23 07:55:49;;;;;;;29.27;18.20;;;20.50;99.90;;;;;;5112152;27;20104;-81
2022/08/23 07:58:15;;;;;;;31.65;18.85;;;20.60;99.90;;;;;;5102111;27;20091;-82
2022/08/23 08:00:40;;;;;;;30.52;17.35;;;20.70;99.90;;;;;;5111415;27;20030;-84
2022/08/23 08:03:06;;;;;;;31.88;18.35;;;20.70;99.90;;;;;;5096367;28;20403;-84
2022/08/23 08:05:32;;;;;;;28.50;18.23;;;20.70;99.90;;;;;;5101368;28;20023;-83
2022/08/23 08:07:58;;;;;;;29.35;18.80;;;20.70;99.90;;;;;;5098199;27;20121;-83
2022/08/23 08:10:24;;;;;;;32.35;17.63;;;20.80;99.90;;;;;;5102024;27;20030;-81
2022/08/23 08:12:50;;;;;;;29.98;17.52;;;20.90;99.90;;;;;;5099093;27;20020;-82
2022/08/23 08:15:17;;;;;;;27.10;16.83;;;21.10;99.90;;;;;;5103406;27;20036;-83
2022/08/23 08:17:46;;;;;;;27.75;18.65;;;21.00;99.90;;;;;;5099576;27;20030;-83
2022/08/23 08:20:14;;;;;;;29.77;17.42;;;21.10;99.90;;;;;;5102534;27;20016;-84
2022/08/23 08:22:40;;;;;;;29.80;17.90;;;21.10;99.90;;;;;;5101089;28;20107;-82
2022/08/23 08:25:07;;;;;;;26.55;17.98;;;21.10;99.90;;;;;;5100180;27;20024;-83
2022/08/23 08:27:33;;;;;;;27.33;17.17;;;21.20;99.90;;;;;;5107433;28;20025;-83
2022/08/23 08:29:59;;;;;;;25.98;17.65;;;21.20;99.90;;;;;;5098578;27;20032;-84
2022/08/23 08:32:25;;;;;;;24.55;17.73;;;21.10;99.90;;;;;;5102405;27;20020;-83
2022/08/23 08:34:51;;;;;;;26.02;17.17;;;21.10;99.90;;;;;;5103167;27;20473;-84
2022/08/23 08:37:16;;;;;;;29.30;17.65;;;21.10;99.90;;;;;;5103574;27;20035;-78
2022/08/23 08:39:45;;;;;;;30.58;19.17;;;21.10;99.90;;;;;;5110732;27;20036;-78
2022/08/23 08:42:44;;;;;;;30.27;21.10;;;21.20;99.90;;;;;;5105690;27;20020;-77
2022/08/23 08:45:22;;;;;;;30.38;21.00;;;21.30;99.90;;;;;;5101515;27;20044;-78
2022/08/23 08:48:01;;;;;;;33.97;22.13;;;21.40;99.90;;;;;;5099166;27;20052;-83
2022/08/23 08:50:42;;;;;;;31.65;19.40;;;21.50;99.90;;;;;;5091169;27;20067;-82
2022/08/23 08:53:26;;;;;;;33.70;21.85;;;21.60;99.90;;;;;;5102053;27;20024;-82
2022/08/23 08:55:59;;;;;;;30.73;22.17;;;21.80;99.90;;;;;;5104683;27;20031;-82
2022/08/23 08:58:30;;;;;;;35.80;23.20;;;21.90;99.90;;;;;;5106919;27;20034;-82
2022/08/23 09:00:57;;;;;;;30.23;20.58;;;22.10;99.90;;;;;;5108704;27;20031;-77
2022/08/23 09:03:26;;;;;;;30.27;18.80;;;22.30;99.90;;;;;;5100138;27;20056;-77
2022/08/23 09:06:00;;;;;;;22.63;16.75;;;22.60;99.90;;;;;;5104092;27;20062;-77
2022/08/23 09:08:41;;;;;;;27.58;19.17;;;22.70;99.90;;;;;;5104264;27;20019;-78
2022/08/23 09:11:21;;;;;;;29.48;20.50;;;22.70;99.90;;;;;;5104682;28;20098;-78
2022/08/23 09:13:58;;;;;;;28.55;19.45;;;22.80;99.90;;;;;;5106559;27;20032;-77
2022/08/23 09:16:24;;;;;;;23.35;17.63;;;22.90;99.90;;;;;;5094712;27;20020;-77
2022/08/23 09:18:53;;;;;;;34.35;22.70;;;22.90;99.90;;;;;;5093563;27;20044;-82
2022/08/23 09:21:19;;;;;;;30.02;19.50;;;23.00;99.90;;;;;;5094753;27;20492;-83
2022/08/23 09:23:47;;;;;;;28.70;18.45;;;22.90;99.90;;;;;;5094276;27;20027;-82
2022/08/23 09:26:22;;;;;;;27.48;18.65;;;22.80;99.90;;;;;;5107041;27;20526;-83
2022/08/23 09:29:09;;;;;;;25.08;17.02;;;22.90;99.90;;;;;;5091960;27;20074;-83
2022/08/23 09:31:49;;;;;;;27.45;18.58;;;22.80;99.90;;;;;;5094195;27;20431;-83
2022/08/23 09:34:22;;;;;;;30.67;19.30;;;22.90;99.90;;;;;;5094957;27;20032;-82
2022/08/23 09:36:48;;;;;;;23.73;18.42;;;22.80;99.90;;;;;;5096978;27;20107;-84
2022/08/23 09:39:27;;;;;;;27.02;19.08;;;23.00;99.90;;;;;;5102024;27;20074;-83
2022/08/23 09:41:52;;;;;;;30.38;20.58;;;23.20;99.90;;;;;;5093943;27;20349;-84
2022/08/23 09:44:44;;;;;;;27.45;20.42;;;23.20;99.90;;;;;;5094156;27;20553;-78
2022/08/23 09:47:15;;;;;;;27.83;19.98;;;23.40;99.90;;;;;;5094519;27;20028;-78
2022/08/23 09:49:44;;;;;;;27.42;19.52;;;23.50;99.90;;;;;;5094703;27;20040;-79
2022/08/23 09:52:49;;;;;;;24.27;17.73;;;23.60;99.90;;;;;;5097116;27;20024;-77
2022/08/23 09:55:39;;;;;;;26.98;19.83;;;23.80;99.90;;;;;;5071521;28;20390;-79
2022/08/23 09:58:17;;;;;;;23.17;17.83;;;24.00;99.90;;;;;;5065095;28;20469;-77
2022/08/23 10:00:44;;;;;;;25.60;18.90;;;24.40;99.90;;;;;;5089655;27;20040;-79
2022/08/23 10:03:23;;;;;;;24.80;19.02;;;24.40;99.90;;;;;;5117146;27;20483;-79
2022/08/23 10:05:52;;;;;;;22.00;17.50;;;24.20;99.90;;;;;;5106817;27;20115;-79
2022/08/23 10:08:24;;;;;;;22.42;18.58;;;24.10;99.90;;;;;;5131646;27;20371;-79
2022/08/23 10:11:02;;;;;;;21.48;18.38;;;24.20;99.90;;;;;;5126511;27;20036;-79
2022/08/23 10:13:27;;;;;;;28.33;19.85;;;24.20;99.90;;;;;;5130149;27;20049;-79
2022/08/23 10:16:17;;;;;;;48.97;35.15;;;24.20;99.90;;;;;;5132622;27;20035;-78
2022/08/23 10:18:58;;;;;;;24.40;18.83;;;24.20;99.90;;;;;;5106559;27;20031;-79
2022/08/23 10:21:34;;;;;;;28.35;18.33;;;24.30;99.90;;;;;;5116399;27;20032;-79
2022/08/23 10:24:19;;;;;;;26.80;20.30;;;24.40;99.90;;;;;;5131161;27;20408;-79
2022/08/23 10:30:10;;;;;;;24.45;18.23;;;24.50;99.90;;;;;;5130533;27;20387;-79
2022/08/23 10:32:56;;;;;;;23.88;18.85;;;24.60;99.90;;;;;;5120399;27;20090;-78
2022/08/23 10:35:37;;;;;;;27.30;18.15;;;24.60;99.90;;;;;;5131288;27;20069;-84
2022/08/23 10:38:23;;;;;;;24.92;17.05;;;24.60;99.90;;;;;;5131762;27;20022;-85
2022/08/23 10:40:50;;;;;;;23.98;18.20;;;24.60;99.90;;;;;;5129228;27;20035;-84
2022/08/23 10:43:24;;;;;;;22.92;16.42;;;24.60;99.90;;;;;;5129929;27;20023;-84
2022/08/23 10:45:51;;;;;;;24.83;17.17;;;24.60;99.90;;;;;;5129947;27;20028;-85
2022/08/23 10:48:28;;;;;;;20.38;15.75;;;24.50;99.90;;;;;;5100903;28;20431;-84
2022/08/23 10:50:53;;;;;;;19.98;16.80;;;24.70;99.90;;;;;;5096965;27;20052;-83
2022/08/23 10:53:22;;;;;;;24.52;17.20;;;25.00;99.90;;;;;;5129483;27;20039;-83
2022/08/23 10:56:01;;;;;;;22.73;17.48;;;25.30;99.90;;;;;;5130334;27;20055;-80
2022/08/23 10:58:42;;;;;;;20.58;16.60;;;25.50;99.90;;;;;;5130005;27;20099;-80
2022/08/23 11:01:11;;;;;;;23.25;15.90;;;25.80;99.90;;;;;;5108772;27;20091;-84
2022/08/23 11:03:44;;;;;;;24.02;16.48;;;26.00;99.90;;;;;;5127046;27;20020;-84
2022/08/23 11:06:24;;;;;;;21.33;15.73;;;26.00;99.90;;;;;;5105930;27;20095;-84
2022/08/23 11:08:59;;;;;;;19.73;16.27;;;26.00;99.90;;;;;;5106483;27;20019;-84
2022/08/23 11:12:01;;;;;;;18.05;15.32;;;26.20;99.90;;;;;;5100093;27;20526;-83
2022/08/23 11:14:45;;;;;;;18.85;15.80;;;26.50;99.90;;;;;;5119613;27;20110;-82
2022/08/23 11:17:25;;;;;;;16.45;14.20;;;26.50;99.90;;;;;;5100695;27;20111;-82
2022/08/23 11:19:58;;;;;;;16.75;13.75;;;26.30;99.90;;;;;;5128282;27;20015;-82
2022/08/23 11:22:26;;;;;;;21.23;15.13;;;26.30;99.90;;;;;;5133337;27;20016;-83
2022/08/23 11:25:03;;;;;;;22.42;14.18;;;26.10;99.90;;;;;;5133245;27;20019;-82
2022/08/23 11:27:41;;;;;;;17.23;13.35;;;26.10;99.90;;;;;;5124124;27;20019;-84
2022/08/23 11:30:31;;;;;;;16.55;12.88;;;26.00;99.90;;;;;;5089234;28;20396;-80
2022/08/23 11:33:14;;;;;;;13.65;12.20;;;26.20;99.90;;;;;;5091166;28;20149;-83
2022/08/23 11:35:50;;;;;;;16.08;12.30;;;26.50;99.90;;;;;;5092539;28;20023;-81
2022/08/23 11:38:48;;;;;;;17.65;13.15;;;26.50;99.90;;;;;;5093294;28;20015;-84
2022/08/23 11:41:19;;;;;;;15.77;13.15;;;26.70;99.90;;;;;;5096257;28;20055;-81
2022/08/23 11:43:54;;;;;;;13.70;11.63;;;26.90;99.90;;;;;;5092478;28;20031;-84
2022/08/23 11:46:26;;;;;;;19.08;12.60;;;26.80;90.60;;;;;;5092205;28;20258;-82
2022/08/23 11:48:51;;;;;;;13.38;11.68;;;27.10;96.60;;;;;;5090544;28;20032;-81
2022/08/23 11:51:36;;;;;;;16.38;11.35;;;27.20;93.40;;;;;;5092122;28;20068;-82
2022/08/23 11:54:11;;;;;;;12.73;11.30;;;27.20;88.70;;;;;;5090880;28;20028;-83
2022/08/23 11:57:03;;;;;;;14.85;11.77;;;27.10;88.80;;;;;;5092336;28;20051;-82
2022/08/23 11:59:40;;;;;;;17.75;13.85;;;26.90;89.10;;;;;;5092018;28;20034;-84
2022/08/23 12:02:37;;;;;;;18.80;13.77;;;26.80;99.90;;;;;;5102431;28;20099;-83
2022/08/23 12:05:21;;;;;;;18.42;14.52;;;26.70;99.90;;;;;;5126809;27;20732;-83
2022/08/23 12:07:50;;;;;;;15.90;13.77;;;26.70;99.90;;;;;;5134703;27;20029;-83
2022/08/23 12:10:39;;;;;;;17.48;13.15;;;26.50;99.90;;;;;;5116721;27;20023;-83
2022/08/23 12:13:17;;;;;;;14.38;12.77;;;26.50;99.90;;;;;;5135603;27;20015;-81
2022/08/23 12:16:18;;;;;;;19.98;14.65;;;26.40;99.90;;;;;;5136523;27;20027;-82
2022/08/23 12:18:49;;;;;;;25.92;19.40;;;26.50;99.90;;;;;;5118696;27;20123;-82
2022/08/23 12:21:27;;;;;;;21.17;16.45;;;26.50;99.90;;;;;;5135323;27;20019;-81
2022/08/23 12:23:56;;;;;;;24.98;16.98;;;26.20;99.90;;;;;;5121828;27;20385;-81
2022/08/23 12:26:27;;;;;;;21.88;16.38;;;25.70;99.90;;;;;;5115871;27;20498;-83
2022/08/23 12:29:04;;;;;;;24.58;18.67;;;25.40;99.90;;;;;;5131972;27;20533;-80
2022/08/23 12:31:46;;;;;;;22.55;18.63;;;25.40;99.90;;;;;;5108430;27;20021;-81
2022/08/23 12:34:15;;;;;;;23.75;16.33;;;25.50;99.90;;;;;;5129161;27;20031;-81
2022/08/23 12:36:55;;;;;;;22.30;16.70;;;25.70;99.90;;;;;;5109684;27;20016;-82
2022/08/23 12:39:28;;;;;;;20.92;16.67;;;25.90;99.90;;;;;;5107545;27;20672;-83
2022/08/23 12:42:10;;;;;;;23.60;18.73;;;26.10;99.90;;;;;;5126371;27;20056;-83
2022/08/23 12:44:36;;;;;;;20.48;17.33;;;26.00;99.90;;;;;;5135762;27;20169;-84
2022/08/23 12:47:15;;;;;;;26.50;18.05;;;25.80;99.90;;;;;;5135858;27;20111;-80
2022/08/23 12:49:41;;;;;;;27.95;20.58;;;25.50;99.90;;;;;;5135654;27;20047;-81
2022/08/23 12:52:11;;;;;;;25.38;17.27;;;25.50;99.90;;;;;;5135765;27;20464;-80
2022/08/23 12:54:43;;;;;;;23.98;18.02;;;25.60;99.90;;;;;;5107075;27;20067;-81
2022/08/23 12:57:18;;;;;;;20.63;17.08;;;25.40;99.90;;;;;;5134841;27;20464;-81
2022/08/23 12:59:58;;;;;;;21.10;18.17;;;25.50;99.90;;;;;;5134895;27;20115;-82